Time;durP1;ratioP1;P1;durP2;ratioP2;P2;SDS_P1;SDS_P2;PMS_P1;PMS_P2;Temp;Humidity;BMP_temperature;BMP_pressure;BME280_temperature;BME280_humidity;BME280_pressure;Samples;Min_cycle;Max_cycle;Signal;HPM_P1;HPM_P2
2023/05/23 00:00:41;;;;;;;6.53;5.63;;;;;;;14.70;100.00;101483.75;4951666;28;20039;-81
2023/05/23 00:03:07;;;;;;;7.95;5.70;;;;;;;14.74;100.00;101493.53;4944692;28;20034;-82
2023/05/23 00:05:33;;;;;;;9.75;5.88;;;;;;;14.62;100.00;101484.41;4982168;28;20055;-82
2023/05/23 00:08:00;;;;;;;8.65;6.22;;;;;;;14.63;100.00;101490.81;4944611;28;20058;-82
2023/05/23 00:10:26;;;;;;;10.02;5.70;;;;;;;14.64;100.00;101489.78;4977656;28;20055;-81
2023/05/23 00:12:52;;;;;;;10.30;5.72;;;;;;;14.65;100.00;101491.56;4960321;28;20045;-81
2023/05/23 00:15:18;;;;;;;9.30;6.05;;;;;;;14.73;100.00;101494.53;4960600;28;20128;-81
2023/05/23 00:17:44;;;;;;;10.82;6.25;;;;;;;14.81;100.00;101505.75;4960756;28;20121;-81
2023/05/23 00:20:10;;;;;;;8.48;6.13;;;;;;;14.72;100.00;101487.25;4975462;28;20503;-81
2023/05/23 00:22:41;;;;;;;8.50;5.55;;;;;;;14.74;100.00;101501.81;4957450;28;20474;-81
2023/05/23 00:25:10;;;;;;;7.10;5.53;;;;;;;14.74;100.00;101498.16;4968604;28;20042;-81
2023/05/23 00:27:36;;;;;;;11.30;6.57;;;;;;;14.72;100.00;101486.38;4944659;28;20038;-82
2023/05/23 00:30:03;;;;;;;11.20;6.95;;;;;;;14.82;100.00;101496.50;4974033;28;20027;-81
2023/05/23 00:32:28;;;;;;;21.15;11.60;;;;;;;14.76;100.00;101499.78;4958649;28;20037;-81
2023/05/23 00:34:54;;;;;;;15.77;11.43;;;;;;;14.66;100.00;101493.31;4971360;28;20405;-82
2023/05/23 00:37:21;;;;;;;15.27;10.70;;;;;;;14.75;100.00;101506.28;4943211;28;20039;-81
2023/05/23 00:39:47;;;;;;;17.98;10.65;;;;;;;14.65;100.00;101506.19;4940278;29;20035;-81
2023/05/23 00:42:13;;;;;;;14.30;10.45;;;;;;;14.58;100.00;101509.59;4973329;28;20038;-81
2023/05/23 00:44:38;;;;;;;14.73;9.90;;;;;;;14.62;100.00;101509.22;4927014;28;20026;-82
2023/05/23 00:47:06;;;;;;;14.43;10.20;;;;;;;14.56;100.00;101509.75;4932110;28;20073;-82
2023/05/23 00:49:33;;;;;;;11.82;8.85;;;;;;;14.59;100.00;101511.34;4959204;28;20069;-82
2023/05/23 00:51:59;;;;;;;11.90;8.15;;;;;;;14.69;100.00;101509.56;4970083;28;20038;-81
2023/05/23 00:54:32;;;;;;;14.02;9.07;;;;;;;14.61;100.00;101510.25;4945870;28;20046;-81
2023/05/23 00:56:57;;;;;;;;;;;;;;;14.60;100.00;101525.03;4971086;28;20039;-81
2023/05/23 00:59:24;;;;;;;14.93;8.23;;;;;;;14.61;100.00;101515.75;4971171;28;20360;-82
2023/05/23 01:04:27;;;;;;;13.93;9.05;;;;;;;14.60;100.00;101524.16;5322837;23;20047;-80
2023/05/23 01:26:00;;;;;;;13.45;8.45;;;;;;;14.55;100.00;101534.66;6042363;23;21222;31
2023/05/23 01:51:45;;;;;;;15.82;8.05;;;;;;;14.44;100.00;101549.34;5595855;23;20030;-80
2023/05/23 01:54:13;;;;;;;15.07;8.70;;;;;;;14.32;100.00;101543.84;4988879;28;20038;-80
2023/05/23 01:56:39;;;;;;;15.23;8.20;;;;;;;14.27;100.00;101542.50;4980618;28;20062;-79
2023/05/23 01:59:05;;;;;;;15.35;8.38;;;;;;;14.29;100.00;101549.63;4974332;28;20643;-79
2023/05/23 02:24:48;;;;;;;19.92;8.73;;;;;;;14.21;100.00;101568.66;5691723;23;20055;-78
2023/05/23 02:27:14;;;;;;;14.60;8.13;;;;;;;14.19;100.00;101562.41;4946501;28;20019;-78
2023/05/23 02:29:39;;;;;;;16.08;8.63;;;;;;;14.14;100.00;101570.19;4946691;28;20031;-79
2023/05/23 02:32:05;;;;;;;16.90;8.73;;;;;;;14.05;100.00;101568.19;4933640;29;20026;-78
2023/05/23 02:34:31;;;;;;;21.10;9.15;;;;;;;14.09;100.00;101576.09;4946631;28;20020;-79
2023/05/23 02:36:56;;;;;;;18.50;8.95;;;;;;;14.12;100.00;101581.34;4958580;28;20129;-79
2023/05/23 02:39:22;;;;;;;24.98;9.02;;;;;;;14.07;100.00;101577.19;4943224;28;20025;-78
2023/05/23 02:41:47;;;;;;;14.38;8.07;;;;;;;14.01;100.00;101573.09;4916300;28;20038;-78
2023/05/23 02:44:12;;;;;;;14.10;7.90;;;;;;;14.01;100.00;101580.47;4929927;29;20019;-79
2023/05/23 02:46:38;;;;;;;13.57;7.45;;;;;;;14.05;100.00;101573.69;4976042;28;20055;-78
2023/05/23 02:49:03;;;;;;;15.00;7.50;;;;;;;13.94;100.00;101575.47;4942606;29;20019;-78
2023/05/23 02:51:30;;;;;;;14.98;6.88;;;;;;;13.96;100.00;101575.34;4929758;28;20026;-79
2023/05/23 02:53:55;;;;;;;8.73;6.40;;;;;;;13.90;100.00;101570.34;4950454;29;20047;-79
2023/05/23 02:56:21;;;;;;;12.50;6.78;;;;;;;13.92;100.00;101558.22;4923693;29;20027;-78
2023/05/23 03:01:22;;;;;;;14.60;7.15;;;;;;;13.88;100.00;101572.34;5889807;23;20039;-78
2023/05/23 03:21:54;;;;;;;16.42;7.70;;;;;;;13.95;100.00;101590.09;5680538;23;20060;-77
2023/05/23 03:24:19;;;;;;;19.30;8.90;;;;;;;13.91;100.00;101596.88;5001582;28;20042;-78
2023/05/23 03:26:45;;;;;;;16.40;8.02;;;;;;;13.83;100.00;101583.72;5006030;28;20030;-78
2023/05/23 03:29:10;;;;;;;16.17;8.45;;;;;;;13.83;100.00;101591.13;4985426;28;20006;-77
2023/05/23 03:31:36;;;;;;;15.52;8.75;;;;;;;13.83;100.00;101593.88;4985018;28;20376;-79
2023/05/23 03:34:04;;;;;;;14.13;8.27;;;;;;;13.90;100.00;101598.72;5014820;28;20034;-79
2023/05/23 03:49:25;;;;;;;20.00;8.32;;;;;;;13.74;100.00;101617.50;5317344;23;20041;-79
2023/05/23 03:51:51;;;;;;;13.85;8.20;;;;;;;13.83;100.00;101614.00;4971888;28;20046;-78
2023/05/23 03:54:17;;;;;;;12.93;7.35;;;;;;;13.65;100.00;101605.34;4967812;28;20045;-79
2023/05/23 04:17:24;;;;;;;13.27;6.20;;;;;;;13.73;100.00;101622.13;4986349;23;20043;-82
2023/05/23 04:19:50;;;;;;;9.48;5.47;;;;;;;13.76;100.00;101619.13;4970739;28;20066;-82
2023/05/23 04:22:16;;;;;;;10.35;6.28;;;;;;;13.72;100.00;101622.25;4984548;28;20046;-82
2023/05/23 04:24:42;;;;;;;11.32;5.95;;;;;;;13.76;100.00;101623.78;4960125;28;20034;-82
2023/05/23 04:27:07;;;;;;;12.45;6.15;;;;;;;13.85;100.00;101631.25;4968472;28;20050;-79
2023/05/23 04:34:45;;;;;;;8.80;5.78;;;;;;;13.79;100.00;101627.16;5428224;23;20036;-80
2023/05/23 04:37:10;;;;;;;11.48;6.05;;;;;;;13.88;100.00;101642.03;4911851;29;20059;-80
2023/05/23 04:39:37;;;;;;;9.30;5.45;;;;;;;13.76;100.00;101619.13;4964859;28;20145;-82
2023/05/23 04:42:02;;;;;;;14.55;6.65;;;;;;;13.92;100.00;101635.28;4956443;28;20066;-82
2023/05/23 04:44:29;;;;;;;12.15;6.28;;;;;;;13.94;100.00;101640.69;4942463;28;20031;-83
2023/05/23 04:46:55;;;;;;;16.42;6.63;;;;;;;13.96;100.00;101647.78;4949210;28;20367;-82
2023/05/23 04:49:21;;;;;;;13.93;6.15;;;;;;;13.92;100.00;101645.41;4943520;28;20043;-82
2023/05/23 04:51:47;;;;;;;14.15;6.40;;;;;;;13.93;100.00;101647.16;4983685;28;20031;-83
2023/05/23 04:54:13;;;;;;;11.18;6.05;;;;;;;13.97;100.00;101641.31;4969547;28;20363;-81
2023/05/23 07:09:04;;;;;;;15.80;4.78;;;;;;;12.96;100.00;101782.06;5576974;23;20043;-81
2023/05/23 07:11:30;;;;;;;21.10;5.50;;;;;;;12.97;100.00;101786.59;4988635;23;20131;-80
2023/05/23 07:13:56;;;;;;;16.80;5.28;;;;;;;12.87;100.00;101785.47;4945226;29;20079;-80
2023/05/23 07:16:21;;;;;;;18.40;5.32;;;;;;;12.98;100.00;101785.56;4968539;28;20040;-80
2023/05/23 07:18:47;;;;;;;18.65;4.65;;;;;;;13.04;100.00;101787.00;4950726;29;20403;-80
2023/05/23 07:21:12;;;;;;;17.80;4.78;;;;;;;13.05;100.00;101775.00;4940665;29;20022;-82
2023/05/23 07:23:39;;;;;;;17.88;4.72;;;;;;;13.04;100.00;101789.75;4918789;29;20032;-81
2023/05/23 07:33:50;;;;;;;23.50;4.45;;;;;;;12.94;100.00;101800.56;5463065;23;20444;-79
2023/05/23 07:36:16;;;;;;;15.60;4.40;;;;;;;13.01;100.00;101803.72;4950691;28;20111;-80
2023/05/23 07:38:42;;;;;;;21.60;4.20;;;;;;;13.01;100.00;101812.84;5086965;23;20110;-79
2023/05/23 07:41:07;;;;;;;19.35;4.75;;;;;;;13.19;100.00;101801.47;4941224;28;20031;-80
2023/05/23 07:43:33;;;;;;;15.05;4.45;;;;;;;13.41;100.00;101812.66;4942361;28;20063;-80
2023/05/23 07:45:58;;;;;;;12.60;3.88;;;;;;;13.35;100.00;101813.09;4923010;28;20039;-82
2023/05/23 07:48:25;;;;;;;18.50;3.90;;;;;;;13.15;100.00;101813.66;4918515;28;20034;-81
2023/05/23 07:50:53;;;;;;;15.77;4.28;;;;;;;13.28;100.00;101811.78;4914866;29;20067;-81
2023/05/23 07:53:20;;;;;;;13.45;4.65;;;;;;;13.48;100.00;101824.06;4941646;28;20077;-82
2023/05/23 07:55:46;;;;;;;14.98;5.43;;;;;;;13.66;100.00;101821.78;4938636;29;20185;-79
2023/05/23 08:21:28;;;;;;;11.60;4.10;;;;;;;15.17;100.00;101839.25;5723031;23;20055;-79
2023/05/23 08:23:53;;;;;;;9.00;3.75;;;;;;;15.64;100.00;101839.88;5011083;23;20111;-79
2023/05/23 08:26:19;;;;;;;14.80;4.25;;;;;;;15.69;100.00;101850.53;4993214;28;20116;-82
2023/05/23 08:28:45;;;;;;;11.45;4.35;;;;;;;15.45;100.00;101837.81;4962144;28;20019;-81
2023/05/23 08:31:10;;;;;;;8.93;4.07;;;;;;;15.52;100.00;101844.53;4979493;28;20091;-78
2023/05/23 08:33:36;;;;;;;14.00;3.90;;;;;;;15.32;100.00;101828.81;4962701;28;20037;-80
2023/05/23 08:36:01;;;;;;;11.50;4.18;;;;;;;15.01;100.00;101836.88;4975821;28;20024;-79
2023/05/23 08:38:27;;;;;;;9.82;4.22;;;;;;;14.91;100.00;101842.25;4926720;28;20047;-80
2023/05/23 08:48:38;;;;;;;12.00;4.40;;;;;;;14.99;100.00;101839.75;5433741;23;20051;-80
2023/05/23 08:53:45;;;;;;;10.90;3.92;;;;;;;14.64;100.00;101850.88;5105004;23;20050;-79
2023/05/23 08:56:11;;;;;;;10.00;4.03;;;;;;;14.89;100.00;101856.16;4973497;28;20077;-80
2023/05/23 09:08:54;;;;;;;8.98;3.42;;;;;;;15.02;100.00;101869.84;5814967;23;20048;-79
2023/05/23 09:22:34;;;;;;;6.30;2.33;;;;;;;14.81;100.00;101874.34;1371860;26;20043;-80
2023/05/23 09:30:11;;;;;;;10.38;2.90;;;;;;;15.39;100.00;101872.28;5697045;23;20047;-79
2023/05/23 09:32:37;;;;;;;5.07;2.15;;;;;;;15.38;100.00;101884.34;4936326;28;20086;-79
2023/05/23 10:23:46;;;;;;;12.75;2.17;;;;;;;16.01;100.00;101903.06;5926771;23;21172;-77
2023/05/23 10:34:22;;;;;;;14.07;2.53;;;;;;;16.11;100.00;101912.28;5783757;23;20106;-80
2023/05/23 10:36:58;;;;;;;17.15;3.05;;;;;;;16.26;100.00;101912.84;4985839;28;20023;-80
2023/05/23 13:33:33;;;;;;;8.35;2.10;;;;;;;17.86;65.16;101947.53;5006019;28;20065;-80
2023/05/23 14:14:47;;;;;;;10.80;1.80;;;;;;;17.74;61.92;101940.34;5958509;23;20905;-78
2023/05/23 14:17:15;;;;;;;11.90;2.20;;;;;;;17.61;61.14;101937.81;5057846;23;20088;-83
2023/05/23 14:19:41;;;;;;;12.85;1.70;;;;;;;17.72;61.09;101932.19;4961534;28;20034;-81
2023/05/23 14:22:07;;;;;;;8.52;1.20;;;;;;;17.54;60.36;101942.19;4977950;28;20019;-80
2023/05/23 14:24:32;;;;;;;17.48;2.08;;;;;;;17.54;64.40;101942.19;4960356;28;20057;-82
2023/05/23 14:26:58;;;;;;;10.80;1.98;;;;;;;17.41;65.45;101945.19;4966010;28;20039;-83
2023/05/23 14:29:23;;;;;;;5.85;1.67;;;;;;;17.59;64.81;101945.41;4932091;28;20036;-80
2023/05/23 14:31:49;;;;;;;10.70;1.80;;;;;;;17.76;63.18;101935.56;4961093;28;20073;-82
2023/05/23 14:34:14;;;;;;;13.23;2.55;;;;;;;17.72;63.37;101946.03;4962443;28;20062;-81
2023/05/23 14:36:40;;;;;;;14.95;1.75;;;;;;;17.81;62.73;101947.97;4944574;28;20037;-81
2023/05/23 14:39:06;;;;;;;11.48;1.90;;;;;;;17.69;64.06;101943.53;4979237;28;20045;-81
2023/05/23 14:41:32;;;;;;;13.68;2.95;;;;;;;17.63;63.00;101946.91;4972031;28;20026;-80
2023/05/23 14:43:57;;;;;;;20.10;1.92;;;;;;;17.68;62.70;101954.78;4956218;28;20103;-79
2023/05/23 14:46:23;;;;;;;8.10;1.88;;;;;;;17.51;60.91;101959.09;4943554;28;20495;-80
2023/05/23 14:48:48;;;;;;;9.18;2.00;;;;;;;17.33;61.13;101948.69;4927725;28;20057;-82
2023/05/23 14:51:13;;;;;;;9.95;2.60;;;;;;;17.44;60.96;101944.91;4960151;28;20034;-82
2023/05/23 14:53:39;;;;;;;7.80;2.40;;;;;;;17.45;58.98;101949.44;4928462;28;20042;-81
2023/05/23 14:56:04;;;;;;;11.25;1.95;;;;;;;17.60;61.24;101955.47;4923310;28;20394;-82
2023/05/23 14:58:30;;;;;;;10.45;1.98;;;;;;;17.42;59.32;101949.72;4957592;28;20486;-82
2023/05/23 15:00:56;;;;;;;8.82;2.00;;;;;;;17.45;60.64;101953.09;4970455;28;20446;-81
2023/05/23 15:03:22;;;;;;;10.10;1.83;;;;;;;17.30;60.74;101943.41;4969988;28;20048;-81
2023/05/23 15:05:47;;;;;;;9.27;1.67;;;;;;;17.00;61.64;101949.81;4957626;28;20034;-81
2023/05/23 15:08:13;;;;;;;14.40;2.03;;;;;;;16.93;60.34;101949.47;4945197;28;20042;-80
2023/05/23 15:10:38;;;;;;;5.25;1.20;;;;;;;17.25;60.45;101943.81;4953699;28;20428;-80
2023/05/23 15:13:04;;;;;;;10.57;1.52;;;;;;;17.13;61.92;101942.16;4956737;28;20070;-80
2023/05/23 15:15:36;;;;;;;6.93;1.70;;;;;;;17.26;61.34;101940.03;4921103;28;20031;-81
2023/05/23 15:18:06;;;;;;;12.57;1.50;;;;;;;17.15;62.23;101942.00;4947382;28;20054;-80
2023/05/23 15:20:35;;;;;;;6.20;1.70;;;;;;;16.81;63.84;101950.53;4953623;28;20034;-80
2023/05/23 15:23:04;;;;;;;15.57;3.22;;;;;;;16.62;62.47;101952.13;4943759;28;20098;-80
2023/05/23 15:25:30;;;;;;;6.43;1.45;;;;;;;16.76;64.23;101942.66;4977882;28;20074;-82
2023/05/23 15:27:56;;;;;;;11.63;1.90;;;;;;;17.00;64.31;101944.28;4935208;28;20043;-81
2023/05/23 15:30:22;;;;;;;9.05;1.63;;;;;;;16.81;62.22;101945.00;4955116;29;20106;-82
2023/05/23 15:32:48;;;;;;;9.98;1.52;;;;;;;16.80;63.67;101937.72;4950667;28;20039;-80
2023/05/23 15:35:13;;;;;;;14.43;2.25;;;;;;;16.80;61.98;101944.13;4957427;28;20101;-81
2023/05/23 15:37:41;;;;;;;7.97;1.77;;;;;;;16.73;61.50;101941.00;4964648;28;20030;-81
2023/05/23 15:40:07;;;;;;;10.38;1.80;;;;;;;16.82;61.88;101935.69;4962349;28;20033;-82
2023/05/23 15:42:34;;;;;;;10.93;1.60;;;;;;;16.79;61.48;101925.78;4943911;28;20129;-81
2023/05/23 15:44:59;;;;;;;8.60;1.80;;;;;;;16.52;61.43;101940.13;4966109;28;20046;-81
2023/05/23 15:47:26;;;;;;;12.10;2.10;;;;;;;16.21;63.00;101948.31;4969028;28;20398;-81
2023/05/23 15:49:51;;;;;;;13.52;2.00;;;;;;;16.49;62.48;101940.41;4951720;28;20039;-81
2023/05/23 15:52:16;;;;;;;11.80;1.90;;;;;;;16.62;64.89;101934.69;4975857;28;20026;-81
2023/05/23 15:54:42;;;;;;;10.38;1.70;;;;;;;16.61;61.92;101938.44;4958913;28;20042;-80
2023/05/23 15:57:07;;;;;;;6.78;1.30;;;;;;;16.75;62.98;101948.31;4975362;28;20042;-82
2023/05/23 15:59:36;;;;;;;7.05;1.58;;;;;;;16.60;61.63;101933.94;4961275;28;20038;-82
2023/05/23 16:02:04;;;;;;;12.15;1.92;;;;;;;16.83;63.76;101935.53;4961702;28;20031;-81
2023/05/23 16:04:34;;;;;;;11.65;1.55;;;;;;;16.69;61.13;101955.25;4992579;28;20022;-81
2023/05/23 16:07:03;;;;;;;4.22;1.10;;;;;;;16.38;62.85;101954.28;4964179;28;20067;-82
2023/05/23 16:09:28;;;;;;;10.18;1.70;;;;;;;16.14;61.44;101956.25;4929300;28;20035;-83
2023/05/23 16:11:58;;;;;;;9.00;3.17;;;;;;;15.91;63.59;101944.38;4963966;28;20031;-81
2023/05/23 16:14:23;;;;;;;9.02;2.10;;;;;;;15.87;64.35;101950.28;4947309;28;20086;-82
2023/05/23 16:16:49;;;;;;;9.80;1.80;;;;;;;16.08;65.14;101948.47;4964065;28;20117;-82
2023/05/23 16:19:14;;;;;;;10.05;1.70;;;;;;;16.12;65.43;101940.81;4966993;28;20029;-81
2023/05/23 16:21:40;;;;;;;9.38;1.85;;;;;;;16.11;65.47;101952.88;4965607;28;20524;-84
2023/05/23 16:24:06;;;;;;;10.25;1.85;;;;;;;16.05;63.79;101943.22;4971640;28;20422;-82
2023/05/23 16:26:31;;;;;;;12.23;1.92;;;;;;;16.27;65.09;101950.56;4965508;28;20385;-84
2023/05/23 16:28:57;;;;;;;13.00;1.85;;;;;;;16.26;62.99;101956.22;4940534;28;20113;-84
2023/05/23 16:31:26;;;;;;;11.50;1.88;;;;;;;16.26;63.97;101953.44;4931946;28;20038;-84
2023/05/23 16:33:52;;;;;;;8.77;2.22;;;;;;;16.16;64.60;101947.81;4979866;28;20105;-85
2023/05/23 16:36:18;;;;;;;8.07;1.50;;;;;;;16.22;64.80;101947.31;4970487;28;20039;-85
2023/05/23 16:38:44;;;;;;;13.48;2.15;;;;;;;16.27;64.55;101947.78;4962065;28;20050;-83
2023/05/23 16:41:09;;;;;;;9.63;2.30;;;;;;;16.44;63.75;101956.50;4941244;28;20142;-84
2023/05/23 16:43:35;;;;;;;10.45;1.60;;;;;;;16.41;61.51;101942.94;4964700;28;20050;-82
2023/05/23 16:46:00;;;;;;;9.77;1.60;;;;;;;16.25;60.89;101946.16;4946521;28;20125;-82
2023/05/23 16:48:26;;;;;;;9.85;1.55;;;;;;;16.24;63.58;101944.41;4971417;28;20109;-82
2023/05/23 16:50:56;;;;;;;8.77;1.88;;;;;;;16.04;62.06;101951.66;4962627;28;20142;-83
2023/05/23 16:53:22;;;;;;;9.52;2.28;;;;;;;16.12;63.47;101940.81;4972223;28;20034;-80
2023/05/23 16:55:47;;;;;;;11.07;1.75;;;;;;;16.29;62.69;101950.41;4966295;28;20042;-83
2023/05/23 16:58:13;;;;;;;8.57;1.50;;;;;;;16.27;62.17;101945.03;4951066;28;20030;-84
2023/05/23 17:00:38;;;;;;;11.75;2.88;;;;;;;16.22;64.11;101943.69;4962231;28;20074;-84
2023/05/23 17:03:04;;;;;;;6.38;1.63;;;;;;;16.05;63.03;101942.34;4968692;28;20453;-84
2023/05/23 17:05:31;;;;;;;9.85;1.80;;;;;;;16.01;63.72;101958.31;4964454;28;20038;-84
2023/05/23 17:07:56;;;;;;;8.93;1.85;;;;;;;15.91;62.72;101960.97;4960824;28;20070;-84
2023/05/23 17:10:22;;;;;;;8.68;1.85;;;;;;;15.78;63.50;101965.75;4934049;28;20035;-84
2023/05/23 17:12:47;;;;;;;7.53;1.60;;;;;;;15.75;64.00;101957.69;4983213;28;20045;-84
2023/05/23 17:15:13;;;;;;;8.85;2.17;;;;;;;15.72;64.34;101964.34;4945925;28;20394;-84
2023/05/23 17:17:39;;;;;;;6.97;1.80;;;;;;;15.67;64.42;101952.81;4960535;28;20090;-84
2023/05/23 17:20:07;;;;;;;10.68;1.38;;;;;;;15.69;63.57;101952.69;4962938;28;20034;-84
2023/05/23 17:22:33;;;;;;;7.47;1.77;;;;;;;15.69;64.70;101956.34;4949268;28;20050;-85
2023/05/23 17:25:00;;;;;;;6.72;1.50;;;;;;;15.82;63.74;101947.91;4944824;28;20050;-84
2023/05/23 17:27:25;;;;;;;14.13;1.33;;;;;;;15.86;64.18;101960.47;4948718;28;22011;-86
2023/05/23 17:29:50;;;;;;;10.32;1.75;;;;;;;15.58;64.13;101948.94;4951855;28;20134;-86
2023/05/23 17:32:16;;;;;;;8.82;1.33;;;;;;;15.51;64.18;101941.28;4947023;28;20027;-83
2023/05/23 17:34:43;;;;;;;12.25;1.38;;;;;;;15.31;63.13;101957.59;4950806;28;20198;-85
2023/05/23 17:37:10;;;;;;;11.75;1.70;;;;;;;15.19;63.23;101959.47;4952449;28;20502;-86
2023/05/23 17:39:36;;;;;;;9.43;1.55;;;;;;;15.21;64.34;101954.72;4967275;28;20051;-84
2023/05/23 17:42:02;;;;;;;8.52;1.65;;;;;;;14.94;64.62;101951.41;4964314;28;20049;-84
2023/05/23 17:44:28;;;;;;;7.38;1.77;;;;;;;15.03;65.23;101957.06;4948356;29;20043;-84
2023/05/23 17:46:53;;;;;;;10.55;1.73;;;;;;;15.02;65.14;101968.22;4958182;28;20043;-84
2023/05/23 17:49:19;;;;;;;16.05;3.05;;;;;;;14.97;65.94;101962.22;4947307;28;20039;-84
2023/05/23 17:51:45;;;;;;;8.63;1.42;;;;;;;14.87;67.04;101971.25;4975528;28;20050;-83
2023/05/23 17:54:13;;;;;;;6.82;1.25;;;;;;;14.84;65.43;101962.34;4946991;28;20145;-82
2023/05/23 17:56:39;;;;;;;13.60;2.47;;;;;;;14.69;66.14;101973.56;4965516;28;20042;-84
2023/05/23 17:59:04;;;;;;;7.65;1.27;;;;;;;14.83;65.00;101974.34;4938889;28;20038;-82
2023/05/23 18:01:30;;;;;;;6.95;1.40;;;;;;;14.74;66.89;101975.06;4964727;28;20038;-83
2023/05/23 18:03:55;;;;;;;8.93;1.55;;;;;;;14.59;67.69;101950.47;4966664;28;20042;-83
2023/05/23 18:06:21;;;;;;;10.27;1.75;;;;;;;14.49;67.03;101975.09;4960576;28;20031;-83
2023/05/23 18:08:47;;;;;;;12.77;1.70;;;;;;;14.57;68.25;101971.72;4955327;28;20039;-82
2023/05/23 18:11:13;;;;;;;4.75;1.25;;;;;;;14.44;67.76;101980.06;4954611;28;20035;-82
2023/05/23 18:13:38;;;;;;;13.38;1.90;;;;;;;14.34;69.38;101976.28;4964334;28;20050;-83
2023/05/23 18:16:04;;;;;;;11.05;1.60;;;;;;;14.26;70.07;101976.88;4966790;28;20062;-81
2023/05/23 18:18:29;;;;;;;8.23;1.80;;;;;;;14.23;69.91;101970.72;4931991;28;20105;-80
2023/05/23 18:20:58;;;;;;;9.20;1.83;;;;;;;14.24;69.13;101991.78;4978526;28;20034;-81
2023/05/23 18:23:23;;;;;;;9.60;1.83;;;;;;;14.34;69.17;101987.31;4965075;28;20065;-83
2023/05/23 18:25:49;;;;;;;7.28;1.13;;;;;;;14.15;70.70;101991.47;4959655;28;20059;-84
2023/05/23 18:28:14;;;;;;;18.30;1.70;;;;;;;14.08;71.14;101989.28;4971211;28;20410;-84
2023/05/23 18:30:40;;;;;;;9.80;1.50;;;;;;;14.10;69.80;101999.22;4973015;28;20038;-84
2023/05/23 18:33:06;;;;;;;10.13;1.48;;;;;;;14.01;72.21;101986.13;4967604;28;20039;-84
2023/05/23 18:35:31;;;;;;;8.30;1.42;;;;;;;13.91;70.69;101999.72;4944946;28;20043;-84
2023/05/23 18:37:56;;;;;;;10.57;1.40;;;;;;;13.87;72.78;101998.19;4960106;28;20039;-84
2023/05/23 18:40:22;;;;;;;10.60;1.58;;;;;;;13.88;72.83;102001.81;4950822;28;20035;-83
2023/05/23 18:42:49;;;;;;;9.77;2.63;;;;;;;13.89;75.43;101998.09;4948428;28;20035;-84
2023/05/23 18:45:15;;;;;;;11.07;1.77;;;;;;;13.73;74.73;101992.84;4958132;28;20481;-83
2023/05/23 18:47:41;;;;;;;12.80;1.50;;;;;;;13.71;75.41;102003.97;4951921;28;20074;-85
2023/05/23 18:50:08;;;;;;;9.75;1.50;;;;;;;13.65;75.01;101993.41;4959889;28;20038;-82
2023/05/23 18:52:36;;;;;;;6.43;1.58;;;;;;;13.45;76.36;101994.88;4943852;28;20034;-84
2023/05/23 18:55:02;;;;;;;15.75;1.67;;;;;;;13.52;75.58;101995.28;4955455;28;20043;-83
2023/05/23 18:57:27;;;;;;;11.55;1.83;;;;;;;13.30;79.33;101980.31;4968019;28;20007;-81
2023/05/23 18:59:53;;;;;;;8.43;1.58;;;;;;;13.20;77.43;101996.63;5060349;23;20050;-81
2023/05/23 19:02:19;;;;;;;13.98;1.42;;;;;;;13.23;77.68;101992.75;4982668;28;20043;-81
2023/05/23 19:04:44;;;;;;;11.65;1.63;;;;;;;13.12;80.06;101992.63;4942833;29;20027;-80
2023/05/23 19:07:10;;;;;;;12.32;2.10;;;;;;;13.12;81.31;101998.13;4970244;29;20107;-84
2023/05/23 19:21:32;;;;;;;7.95;1.98;;;;;;;12.78;84.04;102034.41;1889064;23;20228;-81
2023/05/23 19:23:58;;;;;;;19.80;3.65;;;;;;;12.71;83.52;102041.31;4959776;28;20054;-80
2023/05/23 19:39:44;;;;;;;12.52;1.83;;;;;;;12.36;91.02;102062.94;4543454;23;20285;31
2023/05/23 19:45:06;;;;;;;7.35;1.63;;;;;;;12.23;90.02;102057.41;5867331;23;19923;-80
2023/05/23 19:50:11;;;;;;;12.35;1.63;;;;;;;12.12;91.04;102075.47;5276402;23;20059;-81
2023/05/23 19:52:37;;;;;;;14.02;1.48;;;;;;;12.02;89.78;102056.94;4962198;28;20059;-78
2023/05/23 19:55:03;;;;;;;10.02;1.60;;;;;;;12.02;88.37;102074.31;4968010;28;20046;-78
2023/05/23 19:57:28;;;;;;;11.95;1.63;;;;;;;11.93;91.14;102081.28;4945488;28;20110;-79
2023/05/23 19:59:54;;;;;;;8.95;1.92;;;;;;;11.91;91.60;102076.84;4945189;28;20038;-78
2023/05/23 20:02:19;;;;;;;6.82;1.50;;;;;;;11.93;90.79;102083.16;4952974;28;20056;-79
2023/05/23 20:04:45;;;;;;;8.27;1.55;;;;;;;11.85;90.65;102082.72;4949581;28;20062;-78
2023/05/23 20:07:10;;;;;;;10.60;1.20;;;;;;;11.81;93.01;102079.31;4984323;28;20062;-80
2023/05/23 20:09:36;;;;;;;13.20;2.53;;;;;;;11.73;92.57;102085.28;4968251;28;20028;-79
2023/05/23 20:12:02;;;;;;;10.55;1.45;;;;;;;11.71;92.79;102089.13;4948180;28;20035;-80
2023/05/23 20:22:08;;;;;;;10.98;2.05;;;;;;;11.54;97.46;102106.63;5535270;23;20055;-79
2023/05/23 20:27:09;;;;;;;9.38;1.92;;;;;;;11.42;98.18;102104.69;5467294;23;20095;-80
2023/05/23 20:32:12;;;;;;;11.25;2.22;;;;;;;11.28;99.81;102111.00;5710150;23;20042;-82
2023/05/23 20:44:55;;;;;;;11.95;1.85;;;;;;;11.16;100.00;102119.00;5354370;23;20058;-86
2023/05/23 20:47:21;;;;;;;9.07;1.83;;;;;;;11.13;100.00;102129.28;4932426;28;20046;-80
2023/05/23 20:49:47;;;;;;;11.32;1.58;;;;;;;11.10;100.00;102127.63;4956509;28;20057;-80
2023/05/23 20:52:13;;;;;;;9.50;1.52;;;;;;;11.05;100.00;102127.00;4958208;28;20042;-80
2023/05/23 20:54:41;;;;;;;10.63;1.30;;;;;;;11.04;100.00;102128.00;4977721;28;20106;-79
2023/05/23 20:57:06;;;;;;;9.30;1.63;;;;;;;10.92;100.00;102120.50;4972287;28;20039;-80
2023/05/23 20:59:32;;;;;;;7.97;1.40;;;;;;;10.92;100.00;102128.72;4979652;28;20022;-80
2023/05/23 21:01:57;;;;;;;12.43;2.15;;;;;;;10.88;100.00;102122.56;4979006;28;20035;-80
2023/05/23 21:04:23;;;;;;;10.25;1.58;;;;;;;10.92;100.00;102125.97;4954892;28;20034;-80
2023/05/23 21:06:48;;;;;;;12.60;1.48;;;;;;;10.91;100.00;102113.28;4967141;28;20050;-80
2023/05/23 21:09:15;;;;;;;10.32;1.95;;;;;;;10.88;100.00;102129.91;4958574;28;20055;-80
2023/05/23 21:11:41;;;;;;;8.13;1.40;;;;;;;10.82;100.00;102121.06;4996828;28;20046;-80
2023/05/23 21:14:06;;;;;;;15.23;1.60;;;;;;;10.77;100.00;102116.81;4958830;28;20046;-80
2023/05/23 21:16:32;;;;;;;8.45;1.42;;;;;;;10.79;100.00;102123.09;4962544;28;20043;-79
2023/05/23 21:18:57;;;;;;;14.20;1.60;;;;;;;10.77;100.00;102133.25;4958079;28;20019;-78
2023/05/23 21:21:23;;;;;;;7.32;1.58;;;;;;;10.70;100.00;102129.13;4950605;28;20081;-79
2023/05/23 21:23:48;;;;;;;14.85;1.40;;;;;;;10.62;100.00;102121.38;4986221;28;20046;-79
2023/05/23 21:28:49;;;;;;;8.48;1.40;;;;;;;10.58;100.00;102122.53;5483508;23;20054;-80
2023/05/23 21:31:14;;;;;;;13.50;2.15;;;;;;;10.55;100.00;102117.25;4980899;28;20081;-80
2023/05/23 21:33:41;;;;;;;13.23;1.67;;;;;;;10.50;100.00;102124.84;4967219;28;20408;-80
2023/05/23 21:36:08;;;;;;;15.65;2.58;;;;;;;10.37;100.00;102106.38;4982822;28;20053;-80
2023/05/23 21:38:36;;;;;;;12.05;1.83;;;;;;;10.50;100.00;102122.97;4967103;28;20090;-81
2023/05/23 21:41:02;;;;;;;8.50;1.65;;;;;;;10.53;100.00;102113.72;4968408;28;20038;-79
2023/05/23 21:43:27;;;;;;;16.08;1.80;;;;;;;10.51;100.00;102116.53;4970476;28;20093;-79
2023/05/23 21:45:53;;;;;;;8.48;1.65;;;;;;;10.45;100.00;102128.72;4953933;28;20018;-79
2023/05/23 21:48:18;;;;;;;4.57;1.13;;;;;;;10.40;100.00;102124.50;4948028;28;20097;-79
2023/05/23 21:50:44;;;;;;;10.90;1.70;;;;;;;10.37;100.00;102122.81;4954439;28;20049;-78
2023/05/23 21:53:09;;;;;;;7.85;1.63;;;;;;;10.22;100.00;102104.50;4966045;28;20038;-78
2023/05/23 21:55:37;;;;;;;10.32;1.15;;;;;;;10.26;100.00;102127.97;4997333;28;20031;-79
2023/05/23 21:58:03;;;;;;;10.10;1.75;;;;;;;10.28;100.00;102126.94;4991230;28;20050;-78
2023/05/23 22:00:29;;;;;;;9.98;2.33;;;;;;;10.18;100.00;102124.78;4992619;28;20035;-78
2023/05/23 22:02:58;;;;;;;13.88;1.92;;;;;;;10.09;100.00;102128.94;4952092;28;20107;-78
2023/05/23 22:05:23;;;;;;;12.40;1.75;;;;;;;9.98;100.00;102125.94;4976799;28;20063;-79